sensor_id;sensor_type;location;lat;lon;timestamp;P1;durP1;ratioP1;P2;durP2;ratioP2
75496;SDS011;64074;47.540;19.072;2022-12-07T00:01:31;26.25;;;13.52;;
75496;SDS011;64074;47.540;19.072;2022-12-07T00:04:42;26.75;;;13.52;;
75496;SDS011;64074;47.540;19.072;2022-12-07T00:08:13;29.30;;;13.52;;
75496;SDS011;64074;47.540;19.072;2022-12-07T00:11:26;29.38;;;14.00;;
75496;SDS011;64074;47.540;19.072;2022-12-07T00:14:53;28.10;;;13.57;;
75496;SDS011;64074;47.540;19.072;2022-12-07T00:18:06;27.17;;;13.88;;
75496;SDS011;64074;47.540;19.072;2022-12-07T00:21:24;25.80;;;13.50;;
75496;SDS011;64074;47.540;19.072;2022-12-07T00:24:29;26.25;;;14.23;;
75496;SDS011;64074;47.540;19.072;2022-12-07T00:27:39;23.25;;;13.23;;
75496;SDS011;64074;47.540;19.072;2022-12-07T00:31:00;30.70;;;15.23;;
75496;SDS011;64074;47.540;19.072;2022-12-07T00:34:15;28.27;;;13.57;;
75496;SDS011;64074;47.540;19.072;2022-12-07T00:37:42;28.60;;;14.43;;
75496;SDS011;64074;47.540;19.072;2022-12-07T00:40:59;25.75;;;13.48;;
75496;SDS011;64074;47.540;19.072;2022-12-07T00:44:21;24.52;;;13.60;;
75496;SDS011;64074;47.540;19.072;2022-12-07T00:47:49;24.53;;;13.67;;
75496;SDS011;64074;47.540;19.072;2022-12-07T00:51:14;27.38;;;13.80;;
75496;SDS011;64074;47.540;19.072;2022-12-07T00:54:32;27.23;;;14.45;;
75496;SDS011;64074;47.540;19.072;2022-12-07T00:57:42;25.58;;;14.07;;
75496;SDS011;64074;47.540;19.072;2022-12-07T01:01:19;27.92;;;13.93;;
75496;SDS011;64074;47.540;19.072;2022-12-07T01:04:47;27.57;;;14.50;;
75496;SDS011;64074;47.540;19.072;2022-12-07T01:08:05;25.63;;;13.23;;
75496;SDS011;64074;47.540;19.072;2022-12-07T01:11:19;26.92;;;14.30;;
75496;SDS011;64074;47.540;19.072;2022-12-07T01:14:31;27.95;;;13.90;;
75496;SDS011;64074;47.540;19.072;2022-12-07T01:17:41;28.40;;;13.73;;
75496;SDS011;64074;47.540;19.072;2022-12-07T01:21:02;26.40;;;13.40;;
75496;SDS011;64074;47.540;19.072;2022-12-07T01:24:40;26.42;;;13.40;;
75496;SDS011;64074;47.540;19.072;2022-12-07T01:28:16;27.83;;;14.07;;
75496;SDS011;64074;47.540;19.072;2022-12-07T01:31:44;25.55;;;13.63;;
75496;SDS011;64074;47.540;19.072;2022-12-07T01:35:05;23.33;;;13.20;;
75496;SDS011;64074;47.540;19.072;2022-12-07T01:38:26;29.00;;;14.37;;
75496;SDS011;64074;47.540;19.072;2022-12-07T01:41:50;26.60;;;14.07;;
75496;SDS011;64074;47.540;19.072;2022-12-07T01:49:07;29.73;;;13.98;;
75496;SDS011;64074;47.540;19.072;2022-12-07T01:52:26;29.02;;;15.23;;
75496;SDS011;64074;47.540;19.072;2022-12-07T01:55:45;29.70;;;14.63;;
75496;SDS011;64074;47.540;19.072;2022-12-07T01:58:55;26.88;;;14.30;;
75496;SDS011;64074;47.540;19.072;2022-12-07T02:02:07;28.00;;;14.88;;
75496;SDS011;64074;47.540;19.072;2022-12-07T02:05:30;27.40;;;14.23;;
75496;SDS011;64074;47.540;19.072;2022-12-07T02:08:38;29.83;;;15.32;;
75496;SDS011;64074;47.540;19.072;2022-12-07T02:11:46;26.20;;;14.43;;
75496;SDS011;64074;47.540;19.072;2022-12-07T02:14:55;28.40;;;14.73;;
75496;SDS011;64074;47.540;19.072;2022-12-07T02:18:17;30.95;;;15.32;;
75496;SDS011;64074;47.540;19.072;2022-12-07T02:21:54;33.42;;;16.10;;
75496;SDS011;64074;47.540;19.072;2022-12-07T02:32:53;29.73;;;15.50;;
75496;SDS011;64074;47.540;19.072;2022-12-07T02:36:38;32.50;;;15.55;;
75496;SDS011;64074;47.540;19.072;2022-12-07T02:40:00;30.48;;;15.10;;
75496;SDS011;64074;47.540;19.072;2022-12-07T02:43:19;30.52;;;15.85;;
75496;SDS011;64074;47.540;19.072;2022-12-07T02:46:52;29.00;;;14.93;;
75496;SDS011;64074;47.540;19.072;2022-12-07T02:50:05;30.23;;;15.82;;
75496;SDS011;64074;47.540;19.072;2022-12-07T02:56:50;30.92;;;15.98;;
75496;SDS011;64074;47.540;19.072;2022-12-07T03:00:08;31.63;;;15.88;;
75496;SDS011;64074;47.540;19.072;2022-12-07T03:03:35;33.13;;;17.00;;
75496;SDS011;64074;47.540;19.072;2022-12-07T03:07:00;31.85;;;16.55;;
75496;SDS011;64074;47.540;19.072;2022-12-07T03:10:25;36.95;;;17.27;;
75496;SDS011;64074;47.540;19.072;2022-12-07T03:13:48;36.80;;;17.67;;
75496;SDS011;64074;47.540;19.072;2022-12-07T03:17:24;37.20;;;17.17;;
75496;SDS011;64074;47.540;19.072;2022-12-07T03:20:37;31.93;;;16.60;;
75496;SDS011;64074;47.540;19.072;2022-12-07T03:23:48;34.40;;;16.63;;
75496;SDS011;64074;47.540;19.072;2022-12-07T03:27:04;35.17;;;17.63;;
75496;SDS011;64074;47.540;19.072;2022-12-07T03:34:13;33.97;;;17.50;;
75496;SDS011;64074;47.540;19.072;2022-12-07T03:40:58;32.55;;;16.92;;
75496;SDS011;64074;47.540;19.072;2022-12-07T03:44:15;38.17;;;17.88;;
75496;SDS011;64074;47.540;19.072;2022-12-07T03:47:33;34.38;;;16.88;;
75496;SDS011;64074;47.540;19.072;2022-12-07T03:50:54;30.73;;;16.45;;
75496;SDS011;64074;47.540;19.072;2022-12-07T03:54:11;31.60;;;17.27;;
75496;SDS011;64074;47.540;19.072;2022-12-07T03:57:20;36.10;;;18.52;;
75496;SDS011;64074;47.540;19.072;2022-12-07T04:00:28;33.17;;;17.40;;
75496;SDS011;64074;47.540;19.072;2022-12-07T04:03:37;36.10;;;18.42;;
75496;SDS011;64074;47.540;19.072;2022-12-07T04:07:00;36.17;;;17.88;;
75496;SDS011;64074;47.540;19.072;2022-12-07T04:10:15;31.87;;;16.10;;
75496;SDS011;64074;47.540;19.072;2022-12-07T04:13:37;23.48;;;13.38;;
75496;SDS011;64074;47.540;19.072;2022-12-07T04:17:05;26.90;;;13.63;;
75496;SDS011;64074;47.540;19.072;2022-12-07T04:20:26;23.27;;;12.30;;
75496;SDS011;64074;47.540;19.072;2022-12-07T04:23:36;25.85;;;13.07;;
75496;SDS011;64074;47.540;19.072;2022-12-07T04:26:46;25.13;;;12.93;;
75496;SDS011;64074;47.540;19.072;2022-12-07T04:29:56;20.63;;;11.05;;
75496;SDS011;64074;47.540;19.072;2022-12-07T04:32:59;18.90;;;10.48;;
75496;SDS011;64074;47.540;19.072;2022-12-07T04:36:03;17.63;;;9.60;;
75496;SDS011;64074;47.540;19.072;2022-12-07T04:39:18;13.55;;;7.07;;
75496;SDS011;64074;47.540;19.072;2022-12-07T04:42:30;15.33;;;7.90;;
75496;SDS011;64074;47.540;19.072;2022-12-07T04:45:46;12.88;;;7.05;;
75496;SDS011;64074;47.540;19.072;2022-12-07T04:49:02;14.85;;;7.15;;
75496;SDS011;64074;47.540;19.072;2022-12-07T04:52:24;10.23;;;5.45;;
75496;SDS011;64074;47.540;19.072;2022-12-07T04:55:40;9.32;;;5.43;;
75496;SDS011;64074;47.540;19.072;2022-12-07T04:59:07;7.83;;;4.50;;
75496;SDS011;64074;47.540;19.072;2022-12-07T05:02:36;6.78;;;4.25;;
75496;SDS011;64074;47.540;19.072;2022-12-07T05:05:58;7.10;;;4.18;;
75496;SDS011;64074;47.540;19.072;2022-12-07T05:09:27;12.32;;;7.20;;
75496;SDS011;64074;47.540;19.072;2022-12-07T05:12:37;9.75;;;4.88;;
75496;SDS011;64074;47.540;19.072;2022-12-07T05:16:01;7.53;;;4.20;;
75496;SDS011;64074;47.540;19.072;2022-12-07T05:19:28;5.32;;;3.10;;
75496;SDS011;64074;47.540;19.072;2022-12-07T05:22:46;5.03;;;2.80;;
75496;SDS011;64074;47.540;19.072;2022-12-07T05:26:14;5.72;;;3.60;;
75496;SDS011;64074;47.540;19.072;2022-12-07T05:29:33;5.78;;;3.40;;
75496;SDS011;64074;47.540;19.072;2022-12-07T05:32:56;6.70;;;3.63;;
75496;SDS011;64074;47.540;19.072;2022-12-07T05:36:06;8.90;;;4.65;;
75496;SDS011;64074;47.540;19.072;2022-12-07T05:39:36;7.68;;;4.70;;
75496;SDS011;64074;47.540;19.072;2022-12-07T05:43:00;9.15;;;5.03;;
75496;SDS011;64074;47.540;19.072;2022-12-07T05:46:25;9.00;;;5.70;;
75496;SDS011;64074;47.540;19.072;2022-12-07T05:50:00;9.47;;;5.00;;
75496;SDS011;64074;47.540;19.072;2022-12-07T05:53:14;15.07;;;7.57;;
75496;SDS011;64074;47.540;19.072;2022-12-07T05:56:31;9.85;;;5.43;;
75496;SDS011;64074;47.540;19.072;2022-12-07T05:59:42;9.07;;;5.13;;
75496;SDS011;64074;47.540;19.072;2022-12-07T06:02:52;10.13;;;5.13;;
75496;SDS011;64074;47.540;19.072;2022-12-07T06:06:30;20.13;;;11.90;;
75496;SDS011;64074;47.540;19.072;2022-12-07T06:09:57;12.70;;;6.43;;
75496;SDS011;64074;47.540;19.072;2022-12-07T06:13:22;10.23;;;5.68;;
75496;SDS011;64074;47.540;19.072;2022-12-07T06:16:52;9.13;;;5.18;;
75496;SDS011;64074;47.540;19.072;2022-12-07T06:20:02;10.30;;;5.60;;
75496;SDS011;64074;47.540;19.072;2022-12-07T06:23:13;10.13;;;5.40;;
75496;SDS011;64074;47.540;19.072;2022-12-07T06:26:53;8.02;;;5.00;;
75496;SDS011;64074;47.540;19.072;2022-12-07T06:30:35;9.30;;;5.50;;
75496;SDS011;64074;47.540;19.072;2022-12-07T06:33:46;10.02;;;5.43;;
75496;SDS011;64074;47.540;19.072;2022-12-07T06:36:56;13.43;;;7.10;;
75496;SDS011;64074;47.540;19.072;2022-12-07T06:40:24;11.20;;;6.53;;
75496;SDS011;64074;47.540;19.072;2022-12-07T06:43:43;14.85;;;8.43;;
75496;SDS011;64074;47.540;19.072;2022-12-07T06:47:25;11.00;;;6.45;;
75496;SDS011;64074;47.540;19.072;2022-12-07T06:51:07;14.55;;;7.50;;
75496;SDS011;64074;47.540;19.072;2022-12-07T06:54:40;17.35;;;8.82;;
75496;SDS011;64074;47.540;19.072;2022-12-07T06:58:07;24.00;;;14.13;;
75496;SDS011;64074;47.540;19.072;2022-12-07T07:07:11;29.17;;;14.93;;
75496;SDS011;64074;47.540;19.072;2022-12-07T07:10:32;33.55;;;15.85;;
75496;SDS011;64074;47.540;19.072;2022-12-07T07:13:54;29.27;;;15.52;;
75496;SDS011;64074;47.540;19.072;2022-12-07T07:17:40;31.80;;;16.33;;
75496;SDS011;64074;47.540;19.072;2022-12-07T07:20:58;30.15;;;15.68;;
75496;SDS011;64074;47.540;19.072;2022-12-07T07:24:56;35.05;;;17.75;;
75496;SDS011;64074;47.540;19.072;2022-12-07T07:28:47;34.00;;;17.67;;
75496;SDS011;64074;47.540;19.072;2022-12-07T07:36:24;32.00;;;17.40;;
75496;SDS011;64074;47.540;19.072;2022-12-07T07:39:39;30.88;;;16.20;;
75496;SDS011;64074;47.540;19.072;2022-12-07T08:05:44;32.15;;;18.08;;
75496;SDS011;64074;47.540;19.072;2022-12-07T08:13:35;38.88;;;19.95;;
75496;SDS011;64074;47.540;19.072;2022-12-07T08:16:42;42.93;;;21.47;;
75496;SDS011;64074;47.540;19.072;2022-12-07T08:23:24;41.55;;;22.33;;
75496;SDS011;64074;47.540;19.072;2022-12-07T08:26:50;45.30;;;22.92;;
75496;SDS011;64074;47.540;19.072;2022-12-07T08:30:05;40.80;;;21.77;;
75496;SDS011;64074;47.540;19.072;2022-12-07T08:33:24;50.17;;;21.60;;
75496;SDS011;64074;47.540;19.072;2022-12-07T08:37:21;39.47;;;20.33;;
75496;SDS011;64074;47.540;19.072;2022-12-07T08:48:36;47.38;;;22.65;;
75496;SDS011;64074;47.540;19.072;2022-12-07T08:51:58;28.87;;;15.37;;
75496;SDS011;64074;47.540;19.072;2022-12-07T08:55:45;28.73;;;14.52;;
75496;SDS011;64074;47.540;19.072;2022-12-07T08:59:12;21.60;;;11.75;;
75496;SDS011;64074;47.540;19.072;2022-12-07T09:06:25;16.55;;;8.88;;
75496;SDS011;64074;47.540;19.072;2022-12-07T09:09:44;16.80;;;9.20;;
75496;SDS011;64074;47.540;19.072;2022-12-07T09:13:00;17.15;;;9.20;;
75496;SDS011;64074;47.540;19.072;2022-12-07T09:16:14;15.60;;;8.80;;
75496;SDS011;64074;47.540;19.072;2022-12-07T09:19:29;17.63;;;8.70;;
75496;SDS011;64074;47.540;19.072;2022-12-07T09:22:49;16.58;;;9.05;;
75496;SDS011;64074;47.540;19.072;2022-12-07T09:26:01;18.87;;;10.00;;
75496;SDS011;64074;47.540;19.072;2022-12-07T09:32:56;17.95;;;9.63;;
75496;SDS011;64074;47.540;19.072;2022-12-07T09:36:05;17.33;;;9.10;;
75496;SDS011;64074;47.540;19.072;2022-12-07T09:39:17;17.38;;;9.27;;
75496;SDS011;64074;47.540;19.072;2022-12-07T10:00:13;13.13;;;7.57;;
75496;SDS011;64074;47.540;19.072;2022-12-07T10:07:37;12.35;;;7.20;;
75496;SDS011;64074;47.540;19.072;2022-12-07T10:20:42;8.70;;;5.20;;
75496;SDS011;64074;47.540;19.072;2022-12-07T10:27:29;9.90;;;6.10;;
75496;SDS011;64074;47.540;19.072;2022-12-07T10:56:43;10.77;;;6.18;;
75496;SDS011;64074;47.540;19.072;2022-12-07T11:39:30;9.88;;;5.80;;
75496;SDS011;64074;47.540;19.072;2022-12-07T12:02:16;7.78;;;4.75;;
75496;SDS011;64074;47.540;19.072;2022-12-07T12:40:43;16.67;;;7.38;;
75496;SDS011;64074;47.540;19.072;2022-12-07T13:09:44;10.07;;;5.20;;
75496;SDS011;64074;47.540;19.072;2022-12-07T13:26:04;8.20;;;4.90;;
75496;SDS011;64074;47.540;19.072;2022-12-07T13:29:26;9.18;;;5.05;;
75496;SDS011;64074;47.540;19.072;2022-12-07T13:33:15;10.82;;;5.20;;
75496;SDS011;64074;47.540;19.072;2022-12-07T13:36:55;9.88;;;5.63;;
75496;SDS011;64074;47.540;19.072;2022-12-07T13:40:26;12.43;;;5.78;;
75496;SDS011;64074;47.540;19.072;2022-12-07T13:43:43;11.60;;;6.03;;
75496;SDS011;64074;47.540;19.072;2022-12-07T13:51:03;12.32;;;6.95;;
75496;SDS011;64074;47.540;19.072;2022-12-07T13:54:24;32.72;;;13.50;;
75496;SDS011;64074;47.540;19.072;2022-12-07T14:03:34;12.40;;;6.03;;
75496;SDS011;64074;47.540;19.072;2022-12-07T14:13:58;11.52;;;6.63;;
75496;SDS011;64074;47.540;19.072;2022-12-07T14:17:21;10.85;;;6.20;;
75496;SDS011;64074;47.540;19.072;2022-12-07T14:21:13;13.53;;;6.70;;
75496;SDS011;64074;47.540;19.072;2022-12-07T14:24:28;12.05;;;6.60;;
75496;SDS011;64074;47.540;19.072;2022-12-07T14:27:56;12.70;;;6.85;;
75496;SDS011;64074;47.540;19.072;2022-12-07T14:31:20;15.43;;;7.78;;
75496;SDS011;64074;47.540;19.072;2022-12-07T14:35:11;17.75;;;9.05;;
75496;SDS011;64074;47.540;19.072;2022-12-07T14:38:51;17.30;;;8.37;;
75496;SDS011;64074;47.540;19.072;2022-12-07T14:42:39;13.93;;;7.47;;
75496;SDS011;64074;47.540;19.072;2022-12-07T14:46:23;13.10;;;6.75;;
75496;SDS011;64074;47.540;19.072;2022-12-07T14:49:54;9.60;;;5.80;;
75496;SDS011;64074;47.540;19.072;2022-12-07T14:53:27;15.23;;;6.75;;
75496;SDS011;64074;47.540;19.072;2022-12-07T14:57:19;16.13;;;6.90;;
75496;SDS011;64074;47.540;19.072;2022-12-07T15:00:48;19.00;;;8.30;;
75496;SDS011;64074;47.540;19.072;2022-12-07T15:04:20;18.30;;;9.77;;
75496;SDS011;64074;47.540;19.072;2022-12-07T15:07:42;13.80;;;7.40;;
75496;SDS011;64074;47.540;19.072;2022-12-07T15:11:01;14.35;;;7.30;;
75496;SDS011;64074;47.540;19.072;2022-12-07T15:14:18;16.13;;;7.37;;
75496;SDS011;64074;47.540;19.072;2022-12-07T15:17:31;14.57;;;7.10;;
75496;SDS011;64074;47.540;19.072;2022-12-07T15:20:48;12.48;;;6.78;;
75496;SDS011;64074;47.540;19.072;2022-12-07T15:24:03;14.77;;;7.13;;
75496;SDS011;64074;47.540;19.072;2022-12-07T15:27:12;16.20;;;7.20;;
75496;SDS011;64074;47.540;19.072;2022-12-07T15:30:23;17.13;;;8.23;;
75496;SDS011;64074;47.540;19.072;2022-12-07T15:33:35;29.52;;;14.45;;
75496;SDS011;64074;47.540;19.072;2022-12-07T15:36:47;16.83;;;7.70;;
75496;SDS011;64074;47.540;19.072;2022-12-07T15:40:16;17.67;;;8.80;;
75496;SDS011;64074;47.540;19.072;2022-12-07T15:43:41;53.35;;;28.73;;
75496;SDS011;64074;47.540;19.072;2022-12-07T15:47:18;75.27;;;42.60;;
75496;SDS011;64074;47.540;19.072;2022-12-07T15:50:38;28.98;;;15.32;;
75496;SDS011;64074;47.540;19.072;2022-12-07T15:54:06;31.58;;;17.95;;
75496;SDS011;64074;47.540;19.072;2022-12-07T15:57:36;26.63;;;11.90;;
75496;SDS011;64074;47.540;19.072;2022-12-07T16:00:56;15.93;;;7.47;;
75496;SDS011;64074;47.540;19.072;2022-12-07T16:04:42;13.07;;;6.43;;
75496;SDS011;64074;47.540;19.072;2022-12-07T16:08:05;17.30;;;7.20;;
75496;SDS011;64074;47.540;19.072;2022-12-07T16:11:45;15.30;;;6.60;;
75496;SDS011;64074;47.540;19.072;2022-12-07T16:15:25;14.70;;;7.53;;
75496;SDS011;64074;47.540;19.072;2022-12-07T16:18:49;15.27;;;7.13;;
75496;SDS011;64074;47.540;19.072;2022-12-07T16:22:16;23.30;;;7.57;;
75496;SDS011;64074;47.540;19.072;2022-12-07T16:25:27;15.00;;;7.00;;
75496;SDS011;64074;47.540;19.072;2022-12-07T16:28:41;13.57;;;6.60;;
75496;SDS011;64074;47.540;19.072;2022-12-07T16:32:22;14.40;;;7.25;;
75496;SDS011;64074;47.540;19.072;2022-12-07T16:36:03;20.50;;;10.70;;
75496;SDS011;64074;47.540;19.072;2022-12-07T16:39:17;14.43;;;6.63;;
75496;SDS011;64074;47.540;19.072;2022-12-07T16:42:46;12.32;;;6.22;;
75496;SDS011;64074;47.540;19.072;2022-12-07T16:45:59;13.73;;;7.35;;
75496;SDS011;64074;47.540;19.072;2022-12-07T16:49:23;18.83;;;9.30;;
75496;SDS011;64074;47.540;19.072;2022-12-07T16:52:50;20.20;;;10.73;;
75496;SDS011;64074;47.540;19.072;2022-12-07T16:56:16;17.97;;;9.07;;
75496;SDS011;64074;47.540;19.072;2022-12-07T16:59:30;16.30;;;7.93;;
75496;SDS011;64074;47.540;19.072;2022-12-07T17:02:47;20.10;;;10.20;;
75496;SDS011;64074;47.540;19.072;2022-12-07T17:06:19;20.38;;;9.05;;
75496;SDS011;64074;47.540;19.072;2022-12-07T17:09:45;20.05;;;11.80;;
75496;SDS011;64074;47.540;19.072;2022-12-07T17:13:23;18.43;;;9.70;;
75496;SDS011;64074;47.540;19.072;2022-12-07T17:16:52;21.92;;;10.82;;
75496;SDS011;64074;47.540;19.072;2022-12-07T17:20:27;29.65;;;13.23;;
75496;SDS011;64074;47.540;19.072;2022-12-07T17:23:37;25.27;;;12.98;;
75496;SDS011;64074;47.540;19.072;2022-12-07T17:27:00;22.02;;;11.15;;
75496;SDS011;64074;47.540;19.072;2022-12-07T17:30:43;22.00;;;11.00;;
75496;SDS011;64074;47.540;19.072;2022-12-07T17:33:58;23.92;;;11.40;;
75496;SDS011;64074;47.540;19.072;2022-12-07T17:37:30;22.90;;;9.40;;
75496;SDS011;64074;47.540;19.072;2022-12-07T17:40:46;18.70;;;8.48;;
75496;SDS011;64074;47.540;19.072;2022-12-07T17:44:08;26.63;;;11.25;;
75496;SDS011;64074;47.540;19.072;2022-12-07T17:47:30;20.27;;;11.03;;
75496;SDS011;64074;47.540;19.072;2022-12-07T17:50:59;23.77;;;9.65;;
75496;SDS011;64074;47.540;19.072;2022-12-07T17:54:28;18.45;;;9.75;;
75496;SDS011;64074;47.540;19.072;2022-12-07T17:57:38;22.88;;;8.95;;
75496;SDS011;64074;47.540;19.072;2022-12-07T18:01:08;18.38;;;8.13;;
75496;SDS011;64074;47.540;19.072;2022-12-07T18:04:22;19.53;;;8.60;;
75496;SDS011;64074;47.540;19.072;2022-12-07T18:07:32;16.17;;;8.40;;
75496;SDS011;64074;47.540;19.072;2022-12-07T18:10:41;21.63;;;9.90;;
75496;SDS011;64074;47.540;19.072;2022-12-07T18:13:53;29.00;;;13.55;;
75496;SDS011;64074;47.540;19.072;2022-12-07T18:17:03;29.77;;;12.77;;
75496;SDS011;64074;47.540;19.072;2022-12-07T18:20:18;32.30;;;12.30;;
75496;SDS011;64074;47.540;19.072;2022-12-07T18:23:24;27.75;;;12.98;;
75496;SDS011;64074;47.540;19.072;2022-12-07T18:26:35;27.40;;;12.52;;
75496;SDS011;64074;47.540;19.072;2022-12-07T18:29:53;25.70;;;11.95;;
75496;SDS011;64074;47.540;19.072;2022-12-07T18:33:06;26.65;;;12.05;;
75496;SDS011;64074;47.540;19.072;2022-12-07T18:36:27;25.97;;;12.07;;
75496;SDS011;64074;47.540;19.072;2022-12-07T18:39:50;30.92;;;11.80;;
75496;SDS011;64074;47.540;19.072;2022-12-07T18:43:11;30.00;;;12.25;;
75496;SDS011;64074;47.540;19.072;2022-12-07T18:46:34;24.95;;;10.98;;
75496;SDS011;64074;47.540;19.072;2022-12-07T18:49:58;23.60;;;9.93;;
75496;SDS011;64074;47.540;19.072;2022-12-07T18:53:19;17.23;;;8.73;;
75496;SDS011;64074;47.540;19.072;2022-12-07T18:56:40;19.08;;;9.27;;
75496;SDS011;64074;47.540;19.072;2022-12-07T19:00:04;20.50;;;9.27;;
75496;SDS011;64074;47.540;19.072;2022-12-07T19:07:01;18.23;;;8.95;;
75496;SDS011;64074;47.540;19.072;2022-12-07T19:10:11;19.63;;;9.60;;
75496;SDS011;64074;47.540;19.072;2022-12-07T19:13:32;20.95;;;9.98;;
75496;SDS011;64074;47.540;19.072;2022-12-07T19:16:53;31.85;;;12.48;;
75496;SDS011;64074;47.540;19.072;2022-12-07T19:20:14;21.55;;;10.80;;
75496;SDS011;64074;47.540;19.072;2022-12-07T19:23:35;28.35;;;11.55;;
75496;SDS011;64074;47.540;19.072;2022-12-07T19:26:54;22.83;;;11.70;;
75496;SDS011;64074;47.540;19.072;2022-12-07T19:30:14;24.55;;;11.05;;
75496;SDS011;64074;47.540;19.072;2022-12-07T19:33:40;26.33;;;12.30;;
75496;SDS011;64074;47.540;19.072;2022-12-07T19:37:01;29.02;;;12.80;;
75496;SDS011;64074;47.540;19.072;2022-12-07T19:40:07;29.27;;;13.25;;
75496;SDS011;64074;47.540;19.072;2022-12-07T19:43:10;30.50;;;12.53;;
75496;SDS011;64074;47.540;19.072;2022-12-07T19:46:21;25.40;;;12.70;;
75496;SDS011;64074;47.540;19.072;2022-12-07T19:50:00;32.22;;;12.80;;
75496;SDS011;64074;47.540;19.072;2022-12-07T19:53:10;28.25;;;13.57;;
75496;SDS011;64074;47.540;19.072;2022-12-07T19:56:20;30.35;;;13.38;;
75496;SDS011;64074;47.540;19.072;2022-12-07T20:00:01;29.03;;;13.70;;
75496;SDS011;64074;47.540;19.072;2022-12-07T20:03:22;24.30;;;12.50;;
75496;SDS011;64074;47.540;19.072;2022-12-07T20:06:43;28.40;;;13.60;;
75496;SDS011;64074;47.540;19.072;2022-12-07T20:09:54;29.17;;;13.50;;
75496;SDS011;64074;47.540;19.072;2022-12-07T20:13:25;25.83;;;12.75;;
75496;SDS011;64074;47.540;19.072;2022-12-07T20:16:52;27.90;;;13.30;;
75496;SDS011;64074;47.540;19.072;2022-12-07T20:20:11;30.48;;;13.98;;
75496;SDS011;64074;47.540;19.072;2022-12-07T20:23:32;31.38;;;15.18;;
75496;SDS011;64074;47.540;19.072;2022-12-07T20:26:55;28.85;;;14.35;;
75496;SDS011;64074;47.540;19.072;2022-12-07T20:30:17;30.63;;;15.73;;
75496;SDS011;64074;47.540;19.072;2022-12-07T20:33:41;34.53;;;16.27;;
75496;SDS011;64074;47.540;19.072;2022-12-07T20:36:59;33.50;;;16.90;;
75496;SDS011;64074;47.540;19.072;2022-12-07T20:40:16;41.25;;;18.50;;
75496;SDS011;64074;47.540;19.072;2022-12-07T20:43:19;34.00;;;18.42;;
75496;SDS011;64074;47.540;19.072;2022-12-07T20:46:24;37.58;;;17.23;;
75496;SDS011;64074;47.540;19.072;2022-12-07T20:49:38;33.80;;;15.87;;
75496;SDS011;64074;47.540;19.072;2022-12-07T20:52:54;30.02;;;15.10;;
75496;SDS011;64074;47.540;19.072;2022-12-07T20:56:16;35.50;;;16.25;;
75496;SDS011;64074;47.540;19.072;2022-12-07T20:59:47;31.98;;;15.93;;
75496;SDS011;64074;47.540;19.072;2022-12-07T21:03:11;35.67;;;15.88;;
75496;SDS011;64074;47.540;19.072;2022-12-07T21:06:38;37.50;;;17.20;;
75496;SDS011;64074;47.540;19.072;2022-12-07T21:10:07;30.65;;;14.95;;
75496;SDS011;64074;47.540;19.072;2022-12-07T21:13:18;33.00;;;15.30;;
75496;SDS011;64074;47.540;19.072;2022-12-07T21:16:38;32.15;;;15.68;;
75496;SDS011;64074;47.540;19.072;2022-12-07T21:19:55;29.92;;;14.75;;
75496;SDS011;64074;47.540;19.072;2022-12-07T21:23:24;32.93;;;15.57;;
75496;SDS011;64074;47.540;19.072;2022-12-07T21:26:41;32.88;;;14.85;;
75496;SDS011;64074;47.540;19.072;2022-12-07T21:29:56;30.23;;;15.30;;
75496;SDS011;64074;47.540;19.072;2022-12-07T21:33:03;35.47;;;15.57;;
75496;SDS011;64074;47.540;19.072;2022-12-07T21:36:14;36.30;;;16.42;;
75496;SDS011;64074;47.540;19.072;2022-12-07T21:39:34;32.50;;;16.63;;
75496;SDS011;64074;47.540;19.072;2022-12-07T21:42:52;33.92;;;14.68;;
75496;SDS011;64074;47.540;19.072;2022-12-07T21:46:10;29.10;;;14.65;;
75496;SDS011;64074;47.540;19.072;2022-12-07T21:49:26;33.40;;;16.38;;
75496;SDS011;64074;47.540;19.072;2022-12-07T21:52:45;35.38;;;16.23;;
75496;SDS011;64074;47.540;19.072;2022-12-07T21:56:15;34.97;;;15.60;;
75496;SDS011;64074;47.540;19.072;2022-12-07T21:59:31;36.10;;;15.68;;
75496;SDS011;64074;47.540;19.072;2022-12-07T22:02:44;31.35;;;15.27;;
75496;SDS011;64074;47.540;19.072;2022-12-07T22:05:59;35.78;;;16.25;;
75496;SDS011;64074;47.540;19.072;2022-12-07T22:09:09;34.53;;;15.48;;
75496;SDS011;64074;47.540;19.072;2022-12-07T22:12:20;37.10;;;17.07;;
75496;SDS011;64074;47.540;19.072;2022-12-07T22:15:24;38.38;;;17.30;;
75496;SDS011;64074;47.540;19.072;2022-12-07T22:18:36;35.42;;;16.52;;
75496;SDS011;64074;47.540;19.072;2022-12-07T22:21:47;38.08;;;17.63;;
75496;SDS011;64074;47.540;19.072;2022-12-07T22:24:54;36.50;;;17.27;;
75496;SDS011;64074;47.540;19.072;2022-12-07T22:28:05;40.10;;;18.23;;
75496;SDS011;64074;47.540;19.072;2022-12-07T22:31:16;38.85;;;18.33;;
75496;SDS011;64074;47.540;19.072;2022-12-07T22:34:27;40.85;;;19.20;;
75496;SDS011;64074;47.540;19.072;2022-12-07T22:37:40;42.30;;;18.42;;
75496;SDS011;64074;47.540;19.072;2022-12-07T22:40:55;40.33;;;18.77;;
75496;SDS011;64074;47.540;19.072;2022-12-07T22:43:59;41.87;;;18.87;;
75496;SDS011;64074;47.540;19.072;2022-12-07T22:47:14;40.47;;;17.63;;
75496;SDS011;64074;47.540;19.072;2022-12-07T22:50:24;37.58;;;18.05;;
75496;SDS011;64074;47.540;19.072;2022-12-07T22:53:54;43.13;;;18.42;;
75496;SDS011;64074;47.540;19.072;2022-12-07T22:57:11;40.05;;;18.10;;
75496;SDS011;64074;47.540;19.072;2022-12-07T23:00:22;40.33;;;18.00;;
75496;SDS011;64074;47.540;19.072;2022-12-07T23:03:47;41.42;;;19.40;;
75496;SDS011;64074;47.540;19.072;2022-12-07T23:07:03;36.58;;;18.30;;
75496;SDS011;64074;47.540;19.072;2022-12-07T23:10:26;37.25;;;18.23;;
75496;SDS011;64074;47.540;19.072;2022-12-07T23:13:55;37.92;;;18.48;;
75496;SDS011;64074;47.540;19.072;2022-12-07T23:17:11;35.63;;;17.87;;
75496;SDS011;64074;47.540;19.072;2022-12-07T23:20:28;41.40;;;18.45;;
75496;SDS011;64074;47.540;19.072;2022-12-07T23:23:37;42.13;;;18.85;;
75496;SDS011;64074;47.540;19.072;2022-12-07T23:26:43;41.95;;;19.02;;
75496;SDS011;64074;47.540;19.072;2022-12-07T23:29:54;41.88;;;19.85;;
75496;SDS011;64074;47.540;19.072;2022-12-07T23:33:15;37.63;;;18.77;;
75496;SDS011;64074;47.540;19.072;2022-12-07T23:36:34;40.05;;;19.38;;
75496;SDS011;64074;47.540;19.072;2022-12-07T23:39:54;41.47;;;18.63;;
75496;SDS011;64074;47.540;19.072;2022-12-07T23:43:16;38.58;;;18.23;;
75496;SDS011;64074;47.540;19.072;2022-12-07T23:46:43;39.70;;;18.50;;
75496;SDS011;64074;47.540;19.072;2022-12-07T23:50:03;43.30;;;17.80;;
75496;SDS011;64074;47.540;19.072;2022-12-07T23:53:27;39.30;;;18.75;;
75496;SDS011;64074;47.540;19.072;2022-12-07T23:56:38;38.15;;;18.38;;
